Pireps
You are here: Olympic Virtual Pireps

Flight OLY10021

  • Submitted By: Stavros Sarikas
  • Departure Airport: BRUSSELS NATIONAL (EBBR)
  • Arrival Airport: HEATHROW (EGLL)
  • Aircraft: A320-200 (SX-OAH)
  • Flight Time: 00.52
  • Date Submitted: 30/08/2017
  • Route: HELEN UL179 COA UL608 SUMUM L608 LOGAN
  • Status: Accepted
Flight Details
Gross Revenue:
(138 load / € 47.25 per unit
€ 6, 520.50
Fuel Cost:
(445 fuel used @ 0.19 / unit)
€ 84.55

Additional Log Information:

View Log

Aircraft Used in flight is Airbus A320 British Airways G-EUUU
07:23 Boarding
07:23 Beacon Lights ON at 200 Feet
07:23 Brakes are On
07:23 Navigation Lights ON at 200 Feet
07:24 In Air Refuel Suspected
07:28 Engine 2 Started
07:29 Engine 1 Started
07:31 Brakes are Released
07:31 Flaps 3 Selected at 200ft and 0kts
07:31 Pushing back
07:32 Taxi Lights ON at 200 Feet
07:33 Landing Lights ON at 200 AGL
07:33 Strobe Lights ON at 200 Feet
07:34 You Took off @ 145 Knots and Flaps at Position 3 With a heading of 246 Degrees
Departure Weather EBBR 300420Z 03005KT 2800 BR FEW007 19/18 Q1007 NOSIG
Departure Coordinates 50.9034541255752/ 4.47147942668564
Takeoff Weight=58681KG Fuel Weight=3835KG
07:35 TOC Reached
07:35 Landing Gear Up @ 152 Knots and 260 Feet
07:35 Taxi Lights OFF at 280 Feet
07:36 Flaps 2 Selected at 1700ft and 150kts
07:36 Flaps 0 Selected at 1990ft and 183kts
07:38 Landing Lights OFF at 10050 AGL
08:00 Below 10000 feet you are not allowed to go over 250 knots
08:00 Landing Lights ON at 9740 AGL
08:11 Flaps 1 Selected at 2120ft and 209kts
08:11 Flaps 3 Selected at 2040ft and 195kts
08:11 Landing Gear Down @ 189 Knots and 2010 Feet
08:11 Flaps 4 Selected at 1960ft and 169kts
08:11 Taxi Lights ON at 1950 Feet
08:11 Flaps 5 Selected at 1930ft and 161kts
08:15 You Landed @ 130 Knots with -317 Vertical Speed With a heading of 270 and with 2.136 G Force
Arrival Weather: EGLL 300450Z 36006KT 330V050 9999 BKN040 14/09 Q1012 NOSIG
Arrival Coordinates 51.4649990187366/ -0.440269781879964
Landing Weight=56838KG Fuel Weight=1994KG
08:15 Airplane Bounced
08:15 Taxiing to gate
08:15 Paused
08:15 Landing Lights OFF at 90 AGL
08:15 Strobe Lights OFF at 90 Feet
08:15 Flaps 0 Selected at 90ft and 37kts
08:16 Brakes are On
Pirep logged with OA Virtual Tracking 1.0.2.4

Route Map